sensor_id;sensor_type;location;lat;lon;timestamp;pressure;altitude;pressure_sealevel;temperature;humidity
55486;BME280;49383;-25.924;28.194;2023-02-13T00:00:23;85032.46;;;20.35;49.04
55486;BME280;49383;-25.924;28.194;2023-02-13T00:02:46;85033.85;;;20.14;51.66
55486;BME280;49383;-25.924;28.194;2023-02-13T00:05:11;85035.01;;;19.98;53.99
55486;BME280;49383;-25.924;28.194;2023-02-13T00:07:36;85035.75;;;19.69;54.98
55486;BME280;49383;-25.924;28.194;2023-02-13T00:10:01;85032.36;;;19.87;51.61
55486;BME280;49383;-25.924;28.194;2023-02-13T00:12:26;85030.96;;;20.24;49.14
55486;BME280;49383;-25.924;28.194;2023-02-13T00:14:51;85026.37;;;20.42;48.09
55486;BME280;49383;-25.924;28.194;2023-02-13T00:17:16;85024.03;;;20.20;50.88
55486;BME280;49383;-25.924;28.194;2023-02-13T00:19:41;85024.29;;;19.83;53.10
55486;BME280;49383;-25.924;28.194;2023-02-13T00:22:06;85021.74;;;20.04;54.26
55486;BME280;49383;-25.924;28.194;2023-02-13T00:24:31;85016.65;;;19.88;54.69
55486;BME280;49383;-25.924;28.194;2023-02-13T00:26:57;85011.19;;;19.97;49.65
55486;BME280;49383;-25.924;28.194;2023-02-13T00:29:22;85011.23;;;20.30;50.59
55486;BME280;49383;-25.924;28.194;2023-02-13T00:31:47;85008.09;;;20.23;53.26
55486;BME280;49383;-25.924;28.194;2023-02-13T00:34:12;85005.46;;;19.86;54.49
55486;BME280;49383;-25.924;28.194;2023-02-13T00:36:37;85005.76;;;19.74;55.63
55486;BME280;49383;-25.924;28.194;2023-02-13T00:39:02;85004.86;;;20.07;51.74
55486;BME280;49383;-25.924;28.194;2023-02-13T00:41:27;85003.10;;;20.36;49.41
55486;BME280;49383;-25.924;28.194;2023-02-13T00:43:52;85003.31;;;20.15;51.85
55486;BME280;49383;-25.924;28.194;2023-02-13T00:46:17;85000.62;;;19.85;53.84
55486;BME280;49383;-25.924;28.194;2023-02-13T00:48:43;84998.72;;;19.59;55.30
55486;BME280;49383;-25.924;28.194;2023-02-13T00:51:08;84995.26;;;19.79;55.45
55486;BME280;49383;-25.924;28.194;2023-02-13T00:53:33;84993.24;;;19.88;50.22
55486;BME280;49383;-25.924;28.194;2023-02-13T00:55:58;84990.76;;;20.54;50.61
55486;BME280;49383;-25.924;28.194;2023-02-13T00:58:23;84986.66;;;20.16;52.97
55486;BME280;49383;-25.924;28.194;2023-02-13T01:00:48;84986.48;;;19.91;54.69
55486;BME280;49383;-25.924;28.194;2023-02-13T01:03:13;84984.17;;;19.86;54.36
55486;BME280;49383;-25.924;28.194;2023-02-13T01:05:38;84987.14;;;19.81;49.79
55486;BME280;49383;-25.924;28.194;2023-02-13T01:08:04;84985.88;;;20.24;51.46
55486;BME280;49383;-25.924;28.194;2023-02-13T01:10:28;84983.13;;;20.16;53.20
55486;BME280;49383;-25.924;28.194;2023-02-13T01:12:54;84983.56;;;20.07;54.96
55486;BME280;49383;-25.924;28.194;2023-02-13T01:15:19;84985.15;;;19.87;54.93
55486;BME280;49383;-25.924;28.194;2023-02-13T01:17:44;84981.13;;;19.94;49.33
55486;BME280;49383;-25.924;28.194;2023-02-13T01:20:11;84982.98;;;20.32;50.40
55486;BME280;49383;-25.924;28.194;2023-02-13T01:22:34;84980.95;;;20.28;52.65
55486;BME280;49383;-25.924;28.194;2023-02-13T01:24:59;84979.63;;;19.87;54.01
55486;BME280;49383;-25.924;28.194;2023-02-13T01:27:24;84979.03;;;19.80;55.06
55486;BME280;49383;-25.924;28.194;2023-02-13T01:29:49;84974.35;;;20.23;50.44
55486;BME280;49383;-25.924;28.194;2023-02-13T01:32:14;84973.82;;;20.35;48.63
55486;BME280;49383;-25.924;28.194;2023-02-13T01:34:39;84974.18;;;20.48;51.49
55486;BME280;49383;-25.924;28.194;2023-02-13T01:37:04;84973.91;;;19.92;53.72
55486;BME280;49383;-25.924;28.194;2023-02-13T01:39:29;84972.56;;;20.19;54.63
55486;BME280;49383;-25.924;28.194;2023-02-13T01:41:54;84975.23;;;19.77;55.41
55486;BME280;49383;-25.924;28.194;2023-02-13T01:46:45;84974.13;;;20.25;50.50
55486;BME280;49383;-25.924;28.194;2023-02-13T01:49:13;84973.56;;;20.55;52.42
55486;BME280;49383;-25.924;28.194;2023-02-13T01:51:36;84976.35;;;20.09;54.19
55486;BME280;49383;-25.924;28.194;2023-02-13T01:54:03;84977.87;;;19.61;55.47
55486;BME280;49383;-25.924;28.194;2023-02-13T01:56:28;84979.28;;;19.92;52.27
55486;BME280;49383;-25.924;28.194;2023-02-13T01:58:53;84976.59;;;20.14;49.65
55486;BME280;49383;-25.924;28.194;2023-02-13T02:01:16;84974.80;;;20.23;52.69
55486;BME280;49383;-25.924;28.194;2023-02-13T02:03:43;84976.77;;;20.06;53.89
55486;BME280;49383;-25.924;28.194;2023-02-13T02:06:07;84975.24;;;19.74;54.90
55486;BME280;49383;-25.924;28.194;2023-02-13T02:08:31;84977.11;;;20.12;53.64
55486;BME280;49383;-25.924;28.194;2023-02-13T02:10:59;84970.54;;;20.27;49.76
55486;BME280;49383;-25.924;28.194;2023-02-13T02:13:21;84969.99;;;20.27;51.72
55486;BME280;49383;-25.924;28.194;2023-02-13T02:15:47;84971.93;;;19.80;54.18
55486;BME280;49383;-25.924;28.194;2023-02-13T02:18:14;84975.61;;;20.11;55.13
55486;BME280;49383;-25.924;28.194;2023-02-13T02:20:46;84977.58;;;19.86;55.20
55486;BME280;49383;-25.924;28.194;2023-02-13T02:23:13;84979.88;;;19.86;49.87
55486;BME280;49383;-25.924;28.194;2023-02-13T02:32:51;84996.76;;;19.95;54.86
55486;BME280;49383;-25.924;28.194;2023-02-13T02:35:15;85000.95;;;19.99;51.52
55486;BME280;49383;-25.924;28.194;2023-02-13T02:37:44;85002.11;;;20.37;49.99
55486;BME280;49383;-25.924;28.194;2023-02-13T02:40:07;85004.05;;;20.48;52.31
55486;BME280;49383;-25.924;28.194;2023-02-13T02:42:29;85005.19;;;20.02;53.72
55486;BME280;49383;-25.924;28.194;2023-02-13T02:44:53;85007.27;;;20.14;55.05
55486;BME280;49383;-25.924;28.194;2023-02-13T02:47:20;85007.65;;;20.17;51.52
55486;BME280;49383;-25.924;28.194;2023-02-13T02:49:38;85013.52;;;20.02;49.65
55486;BME280;49383;-25.924;28.194;2023-02-13T02:52:06;85016.82;;;20.03;52.81
55486;BME280;49383;-25.924;28.194;2023-02-13T02:54:33;85020.32;;;19.84;54.62
55486;BME280;49383;-25.924;28.194;2023-02-13T02:56:55;85022.65;;;20.14;53.47
55486;BME280;49383;-25.924;28.194;2023-02-13T02:59:20;85022.65;;;20.09;49.50
55486;BME280;49383;-25.924;28.194;2023-02-13T03:01:44;85025.11;;;20.40;48.60
55486;BME280;49383;-25.924;28.194;2023-02-13T03:04:14;85025.96;;;20.14;51.90
55486;BME280;49383;-25.924;28.194;2023-02-13T03:06:37;85029.55;;;20.09;53.42
55486;BME280;49383;-25.924;28.194;2023-02-13T03:09:00;85033.46;;;20.00;54.70
55486;BME280;49383;-25.924;28.194;2023-02-13T03:11:24;85030.91;;;19.89;53.83
55486;BME280;49383;-25.924;28.194;2023-02-13T03:13:49;85032.95;;;19.78;48.77
55486;BME280;49383;-25.924;28.194;2023-02-13T03:16:17;85037.66;;;20.30;50.72
55486;BME280;49383;-25.924;28.194;2023-02-13T03:18:43;85039.78;;;20.07;52.74
55486;BME280;49383;-25.924;28.194;2023-02-13T03:21:09;85043.10;;;20.02;53.88
55486;BME280;49383;-25.924;28.194;2023-02-13T03:23:36;85043.13;;;20.21;54.87
55486;BME280;49383;-25.924;28.194;2023-02-13T03:26:14;85040.34;;;20.05;49.93
55486;BME280;49383;-25.924;28.194;2023-02-13T03:28:24;85040.04;;;20.50;49.84
55486;BME280;49383;-25.924;28.194;2023-02-13T03:30:54;85042.99;;;20.42;51.76
55486;BME280;49383;-25.924;28.194;2023-02-13T03:33:20;85043.91;;;19.92;53.84
55486;BME280;49383;-25.924;28.194;2023-02-13T03:35:39;85045.00;;;19.77;55.05
55486;BME280;49383;-25.924;28.194;2023-02-13T03:38:04;85045.73;;;20.17;51.92
55486;BME280;49383;-25.924;28.194;2023-02-13T03:40:30;85047.34;;;20.43;49.28
55486;BME280;49383;-25.924;28.194;2023-02-13T03:42:53;85051.19;;;20.29;51.09
55486;BME280;49383;-25.924;28.194;2023-02-13T03:45:19;85056.98;;;20.21;54.01
55486;BME280;49383;-25.924;28.194;2023-02-13T03:47:41;85055.93;;;19.74;55.02
55486;BME280;49383;-25.924;28.194;2023-02-13T03:50:07;85059.20;;;19.99;56.20
55486;BME280;49383;-25.924;28.194;2023-02-13T03:52:33;85059.43;;;19.88;51.83
55486;BME280;49383;-25.924;28.194;2023-02-13T03:54:57;85064.14;;;20.17;50.25
55486;BME280;49383;-25.924;28.194;2023-02-13T03:57:22;85067.16;;;20.16;52.21
55486;BME280;49383;-25.924;28.194;2023-02-13T03:59:46;85069.20;;;19.57;54.47
55486;BME280;49383;-25.924;28.194;2023-02-13T04:02:13;85074.09;;;19.76;55.71
55486;BME280;49383;-25.924;28.194;2023-02-13T04:04:42;85076.06;;;19.94;55.60
55486;BME280;49383;-25.924;28.194;2023-02-13T04:07:04;85075.61;;;20.01;50.39
55486;BME280;49383;-25.924;28.194;2023-02-13T04:09:27;85081.20;;;20.08;50.85
55486;BME280;49383;-25.924;28.194;2023-02-13T04:11:57;85084.12;;;20.18;52.62
55486;BME280;49383;-25.924;28.194;2023-02-13T04:14:20;85087.07;;;20.10;54.37
55486;BME280;49383;-25.924;28.194;2023-02-13T04:16:43;85089.06;;;19.85;50.59
55486;BME280;49383;-25.924;28.194;2023-02-13T04:19:08;85091.74;;;20.25;48.98
55486;BME280;49383;-25.924;28.194;2023-02-13T04:21:33;85092.03;;;20.11;48.36
55486;BME280;49383;-25.924;28.194;2023-02-13T04:23:58;85094.31;;;20.29;47.35
55486;BME280;49383;-25.924;28.194;2023-02-13T04:26:31;85096.83;;;20.27;47.14
55486;BME280;49383;-25.924;28.194;2023-02-13T04:28:49;85100.84;;;20.29;47.13
55486;BME280;49383;-25.924;28.194;2023-02-13T04:31:14;85098.74;;;20.38;49.24
55486;BME280;49383;-25.924;28.194;2023-02-13T04:33:40;85102.30;;;20.38;51.68
55486;BME280;49383;-25.924;28.194;2023-02-13T04:36:05;85105.03;;;20.22;52.78
55486;BME280;49383;-25.924;28.194;2023-02-13T04:38:29;85107.62;;;19.82;53.72
55486;BME280;49383;-25.924;28.194;2023-02-13T04:40:55;85109.37;;;19.97;53.11
55486;BME280;49383;-25.924;28.194;2023-02-13T04:43:20;85114.97;;;20.18;48.44
55486;BME280;49383;-25.924;28.194;2023-02-13T04:45:48;85114.43;;;20.42;50.41
55486;BME280;49383;-25.924;28.194;2023-02-13T04:48:11;85118.36;;;20.02;53.27
55486;BME280;49383;-25.924;28.194;2023-02-13T04:50:36;85117.43;;;20.02;54.36
55486;BME280;49383;-25.924;28.194;2023-02-13T04:53:01;85119.58;;;20.05;53.15
55486;BME280;49383;-25.924;28.194;2023-02-13T04:55:28;85123.08;;;20.20;49.32
55486;BME280;49383;-25.924;28.194;2023-02-13T04:57:52;85124.98;;;20.59;50.36
55486;BME280;49383;-25.924;28.194;2023-02-13T05:00:18;85128.08;;;20.23;52.55
55486;BME280;49383;-25.924;28.194;2023-02-13T05:02:42;85129.36;;;20.01;54.26
55486;BME280;49383;-25.924;28.194;2023-02-13T05:05:07;85130.23;;;20.15;49.94
55486;BME280;49383;-25.924;28.194;2023-02-13T05:07:33;85131.85;;;20.52;48.91
55486;BME280;49383;-25.924;28.194;2023-02-13T05:09:58;85133.36;;;20.57;51.57
55486;BME280;49383;-25.924;28.194;2023-02-13T05:12:24;85132.95;;;19.95;53.53
55486;BME280;49383;-25.924;28.194;2023-02-13T05:14:49;85138.18;;;19.72;54.40
55486;BME280;49383;-25.924;28.194;2023-02-13T05:17:15;85137.41;;;20.23;49.51
55486;BME280;49383;-25.924;28.194;2023-02-13T05:19:40;85138.50;;;20.57;49.50
55486;BME280;49383;-25.924;28.194;2023-02-13T05:22:07;85140.45;;;20.18;51.97
55486;BME280;49383;-25.924;28.194;2023-02-13T05:24:31;85140.67;;;20.27;53.62
55486;BME280;49383;-25.924;28.194;2023-02-13T05:26:57;85140.07;;;19.80;52.26
55486;BME280;49383;-25.924;28.194;2023-02-13T05:29:22;85144.78;;;19.86;48.48
55486;BME280;49383;-25.924;28.194;2023-02-13T05:31:48;85144.93;;;20.30;49.95
55486;BME280;49383;-25.924;28.194;2023-02-13T05:34:12;85146.11;;;20.12;52.53
55486;BME280;49383;-25.924;28.194;2023-02-13T05:36:37;85149.66;;;20.05;53.85
55486;BME280;49383;-25.924;28.194;2023-02-13T05:39:04;85150.28;;;20.05;54.11
55486;BME280;49383;-25.924;28.194;2023-02-13T05:41:29;85153.65;;;20.15;49.52
55486;BME280;49383;-25.924;28.194;2023-02-13T05:43:54;85157.58;;;20.20;49.48
55486;BME280;49383;-25.924;28.194;2023-02-13T05:46:19;85158.88;;;20.31;51.86
55486;BME280;49383;-25.924;28.194;2023-02-13T05:48:44;85165.69;;;20.61;53.51
55486;BME280;49383;-25.924;28.194;2023-02-13T05:51:09;85164.63;;;20.27;51.47
55486;BME280;49383;-25.924;28.194;2023-02-13T05:53:35;85166.78;;;20.19;48.90
55486;BME280;49383;-25.924;28.194;2023-02-13T05:56:00;85169.78;;;20.21;50.61
55486;BME280;49383;-25.924;28.194;2023-02-13T05:58:25;85172.83;;;20.20;52.51
55486;BME280;49383;-25.924;28.194;2023-02-13T06:00:50;85174.56;;;20.06;53.68
55486;BME280;49383;-25.924;28.194;2023-02-13T06:03:15;85175.89;;;20.13;49.81
55486;BME280;49383;-25.924;28.194;2023-02-13T06:05:40;85178.78;;;19.98;47.72
55486;BME280;49383;-25.924;28.194;2023-02-13T06:08:05;85183.41;;;20.25;50.45
55486;BME280;49383;-25.924;28.194;2023-02-13T06:10:30;85188.18;;;19.86;50.84
55486;BME280;49383;-25.924;28.194;2023-02-13T06:12:55;85188.94;;;20.27;52.15
55486;BME280;49383;-25.924;28.194;2023-02-13T06:15:21;85190.57;;;20.12;52.82
55486;BME280;49383;-25.924;28.194;2023-02-13T06:17:46;85194.82;;;20.54;48.66
55486;BME280;49383;-25.924;28.194;2023-02-13T06:20:12;85197.43;;;20.51;48.38
55486;BME280;49383;-25.924;28.194;2023-02-13T06:22:37;85197.11;;;20.10;51.30
55486;BME280;49383;-25.924;28.194;2023-02-13T06:25:03;85203.22;;;20.25;52.96
55486;BME280;49383;-25.924;28.194;2023-02-13T06:27:28;85208.75;;;19.86;51.58
55486;BME280;49383;-25.924;28.194;2023-02-13T06:29:53;85202.29;;;20.31;47.93
55486;BME280;49383;-25.924;28.194;2023-02-13T06:32:18;85201.32;;;20.48;49.46
55486;BME280;49383;-25.924;28.194;2023-02-13T06:34:44;85200.76;;;20.41;51.39
55486;BME280;49383;-25.924;28.194;2023-02-13T06:37:09;85202.12;;;19.98;53.34
55486;BME280;49383;-25.924;28.194;2023-02-13T06:39:34;85207.46;;;19.88;53.65
55486;BME280;49383;-25.924;28.194;2023-02-13T06:41:59;85198.97;;;20.37;48.71
55486;BME280;49383;-25.924;28.194;2023-02-13T06:44:24;85199.22;;;20.43;48.42
55486;BME280;49383;-25.924;28.194;2023-02-13T06:46:49;85203.49;;;20.45;50.14
55486;BME280;49383;-25.924;28.194;2023-02-13T06:49:15;85205.67;;;20.38;51.49
55486;BME280;49383;-25.924;28.194;2023-02-13T06:51:40;85204.37;;;20.39;52.59
55486;BME280;49383;-25.924;28.194;2023-02-13T06:54:06;85204.80;;;20.18;51.67
55486;BME280;49383;-25.924;28.194;2023-02-13T06:56:31;85208.57;;;20.40;48.13
55486;BME280;49383;-25.924;28.194;2023-02-13T06:58:56;85211.20;;;20.52;49.57
55486;BME280;49383;-25.924;28.194;2023-02-13T07:01:22;85210.44;;;20.65;51.61
55486;BME280;49383;-25.924;28.194;2023-02-13T07:03:47;85210.09;;;20.22;52.52
55486;BME280;49383;-25.924;28.194;2023-02-13T07:06:17;85212.79;;;20.87;53.10
55486;BME280;49383;-25.924;28.194;2023-02-13T07:08:37;85216.62;;;20.72;49.48
55486;BME280;49383;-25.924;28.194;2023-02-13T07:11:02;85216.85;;;20.92;48.46
55486;BME280;49383;-25.924;28.194;2023-02-13T07:13:27;85217.95;;;21.01;48.32
55486;BME280;49383;-25.924;28.194;2023-02-13T07:15:52;85214.66;;;21.01;47.06
55486;BME280;49383;-25.924;28.194;2023-02-13T07:18:18;85214.91;;;20.92;47.60
55486;BME280;49383;-25.924;28.194;2023-02-13T07:20:43;85214.84;;;20.77;50.23
55486;BME280;49383;-25.924;28.194;2023-02-13T07:23:09;85212.57;;;20.55;52.08
55486;BME280;49383;-25.924;28.194;2023-02-13T07:25:33;85209.34;;;20.73;54.03
55486;BME280;49383;-25.924;28.194;2023-02-13T07:28:01;85203.80;;;20.69;56.14
55486;BME280;49383;-25.924;28.194;2023-02-13T07:30:23;85200.06;;;20.64;53.44
55486;BME280;49383;-25.924;28.194;2023-02-13T07:32:48;85197.46;;;20.93;52.80
55486;BME280;49383;-25.924;28.194;2023-02-13T07:35:14;85197.85;;;20.51;53.32
55486;BME280;49383;-25.924;28.194;2023-02-13T07:37:39;85197.81;;;21.00;53.47
55486;BME280;49383;-25.924;28.194;2023-02-13T07:40:05;85195.15;;;20.83;54.77
55486;BME280;49383;-25.924;28.194;2023-02-13T07:42:32;85196.95;;;20.92;54.41
55486;BME280;49383;-25.924;28.194;2023-02-13T07:44:54;85193.19;;;21.25;54.53
55486;BME280;49383;-25.924;28.194;2023-02-13T07:47:20;85190.35;;;20.89;54.43
55486;BME280;49383;-25.924;28.194;2023-02-13T07:49:45;85188.53;;;21.03;55.37
55486;BME280;49383;-25.924;28.194;2023-02-13T07:52:10;85185.49;;;20.97;54.57
55486;BME280;49383;-25.924;28.194;2023-02-13T07:54:36;85183.92;;;21.23;53.73
55486;BME280;49383;-25.924;28.194;2023-02-13T07:57:01;85179.98;;;21.17;53.42
55486;BME280;49383;-25.924;28.194;2023-02-13T07:59:26;85177.20;;;21.12;52.33
55486;BME280;49383;-25.924;28.194;2023-02-13T08:01:51;85175.26;;;21.12;52.01
55486;BME280;49383;-25.924;28.194;2023-02-13T08:04:16;85174.13;;;21.22;51.19
55486;BME280;49383;-25.924;28.194;2023-02-13T08:06:42;85173.49;;;21.47;49.87
55486;BME280;49383;-25.924;28.194;2023-02-13T08:09:06;85170.34;;;21.71;49.46
55486;BME280;49383;-25.924;28.194;2023-02-13T08:11:33;85169.15;;;21.53;49.56
55486;BME280;49383;-25.924;28.194;2023-02-13T08:13:57;85168.33;;;21.50;48.77
55486;BME280;49383;-25.924;28.194;2023-02-13T08:16:23;85166.12;;;21.59;47.99
55486;BME280;49383;-25.924;28.194;2023-02-13T08:18:48;85164.03;;;21.72;47.75
55486;BME280;49383;-25.924;28.194;2023-02-13T08:21:13;85159.75;;;21.46;47.48
55486;BME280;49383;-25.924;28.194;2023-02-13T08:23:38;85156.65;;;21.70;47.34
55486;BME280;49383;-25.924;28.194;2023-02-13T08:26:03;85152.14;;;21.21;48.59
55486;BME280;49383;-25.924;28.194;2023-02-13T08:28:28;85148.04;;;21.71;49.40
55486;BME280;49383;-25.924;28.194;2023-02-13T08:30:53;85146.37;;;21.69;50.65
55486;BME280;49383;-25.924;28.194;2023-02-13T08:33:18;85145.67;;;21.56;50.54
55486;BME280;49383;-25.924;28.194;2023-02-13T08:35:44;85144.64;;;21.25;50.97
55486;BME280;49383;-25.924;28.194;2023-02-13T08:38:09;85141.89;;;21.66;50.29
55486;BME280;49383;-25.924;28.194;2023-02-13T08:40:34;85144.89;;;21.18;50.24
55486;BME280;49383;-25.924;28.194;2023-02-13T08:43:02;85141.99;;;20.86;50.32
55486;BME280;49383;-25.924;28.194;2023-02-13T08:45:24;85141.83;;;21.74;47.42
55486;BME280;49383;-25.924;28.194;2023-02-13T08:47:49;85142.62;;;21.37;46.64
55486;BME280;49383;-25.924;28.194;2023-02-13T08:50:14;85138.86;;;22.03;46.35
55486;BME280;49383;-25.924;28.194;2023-02-13T08:52:39;85137.53;;;21.78;46.03
55486;BME280;49383;-25.924;28.194;2023-02-13T08:55:05;85142.63;;;21.81;46.12
55486;BME280;49383;-25.924;28.194;2023-02-13T08:57:29;85141.47;;;21.83;46.04
55486;BME280;49383;-25.924;28.194;2023-02-13T08:59:54;85139.52;;;21.68;46.00
55486;BME280;49383;-25.924;28.194;2023-02-13T09:02:19;85139.42;;;21.77;45.67
55486;BME280;49383;-25.924;28.194;2023-02-13T09:04:44;85142.32;;;21.53;45.89
55486;BME280;49383;-25.924;28.194;2023-02-13T09:07:09;85144.37;;;21.48;45.74
55486;BME280;49383;-25.924;28.194;2023-02-13T09:09:34;85145.51;;;21.44;45.51
55486;BME280;49383;-25.924;28.194;2023-02-13T09:12:00;85145.71;;;21.71;44.75
55486;BME280;49383;-25.924;28.194;2023-02-13T09:14:24;85146.63;;;21.60;44.68
55486;BME280;49383;-25.924;28.194;2023-02-13T09:16:49;85141.94;;;21.48;44.61
55486;BME280;49383;-25.924;28.194;2023-02-13T09:19:15;85138.52;;;21.64;44.43
55486;BME280;49383;-25.924;28.194;2023-02-13T09:21:39;85138.33;;;21.46;44.11
55486;BME280;49383;-25.924;28.194;2023-02-13T09:24:07;85136.93;;;21.59;43.97
55486;BME280;49383;-25.924;28.194;2023-02-13T09:26:30;85139.26;;;21.41;43.97
55486;BME280;49383;-25.924;28.194;2023-02-13T09:28:55;85139.16;;;21.57;43.36
55486;BME280;49383;-25.924;28.194;2023-02-13T09:31:20;85140.00;;;21.61;43.68
55486;BME280;49383;-25.924;28.194;2023-02-13T09:33:46;85139.09;;;21.18;43.40
55486;BME280;49383;-25.924;28.194;2023-02-13T09:36:12;85139.59;;;21.48;43.00
55486;BME280;49383;-25.924;28.194;2023-02-13T09:38:35;85137.67;;;21.68;44.08
55486;BME280;49383;-25.924;28.194;2023-02-13T09:41:04;85139.04;;;21.31;46.41
55486;BME280;49383;-25.924;28.194;2023-02-13T09:43:29;85137.10;;;21.03;48.24
55486;BME280;49383;-25.924;28.194;2023-02-13T09:45:51;85139.44;;;20.55;50.46
55486;BME280;49383;-25.924;28.194;2023-02-13T09:48:21;85141.67;;;20.19;52.28
55486;BME280;49383;-25.924;28.194;2023-02-13T09:50:41;85138.85;;;20.69;50.70
55486;BME280;49383;-25.924;28.194;2023-02-13T09:53:05;85139.96;;;20.68;47.12
55486;BME280;49383;-25.924;28.194;2023-02-13T09:55:38;85135.84;;;21.05;47.77
55486;BME280;49383;-25.924;28.194;2023-02-13T09:58:00;85134.17;;;20.63;49.53
55486;BME280;49383;-25.924;28.194;2023-02-13T10:00:24;85131.43;;;20.93;51.62
55486;BME280;49383;-25.924;28.194;2023-02-13T10:02:57;85130.31;;;20.73;52.95
55486;BME280;49383;-25.924;28.194;2023-02-13T10:05:22;85125.75;;;20.71;49.53
55486;BME280;49383;-25.924;28.194;2023-02-13T10:07:41;85121.68;;;21.04;47.59
55486;BME280;49383;-25.924;28.194;2023-02-13T10:10:05;85120.66;;;21.23;46.40
55486;BME280;49383;-25.924;28.194;2023-02-13T10:12:35;85119.69;;;21.56;45.20
55486;BME280;49383;-25.924;28.194;2023-02-13T10:15:01;85120.51;;;21.46;44.99
55486;BME280;49383;-25.924;28.194;2023-02-13T10:17:19;85118.81;;;21.46;44.45
55486;BME280;49383;-25.924;28.194;2023-02-13T10:19:43;85118.96;;;21.40;44.30
55486;BME280;49383;-25.924;28.194;2023-02-13T10:22:12;85116.66;;;21.01;44.39
55486;BME280;49383;-25.924;28.194;2023-02-13T10:24:35;85114.80;;;21.16;43.86
55486;BME280;49383;-25.924;28.194;2023-02-13T10:26:58;85113.87;;;21.13;43.60
55486;BME280;49383;-25.924;28.194;2023-02-13T10:29:27;85116.17;;;21.25;43.26
55486;BME280;49383;-25.924;28.194;2023-02-13T10:31:48;85118.06;;;21.58;42.79
55486;BME280;49383;-25.924;28.194;2023-02-13T10:34:15;85116.50;;;21.20;42.84
55486;BME280;49383;-25.924;28.194;2023-02-13T10:36:41;85113.50;;;21.25;43.10
55486;BME280;49383;-25.924;28.194;2023-02-13T10:39:11;85115.32;;;21.17;45.19
55486;BME280;49383;-25.924;28.194;2023-02-13T10:41:37;85116.83;;;21.27;46.91
55486;BME280;49383;-25.924;28.194;2023-02-13T10:44:04;85116.34;;;21.46;48.22
55486;BME280;49383;-25.924;28.194;2023-02-13T10:46:23;85116.68;;;20.94;50.31
55486;BME280;49383;-25.924;28.194;2023-02-13T10:48:55;85109.77;;;20.60;47.91
55486;BME280;49383;-25.924;28.194;2023-02-13T10:51:11;85104.09;;;21.16;45.05
55486;BME280;49383;-25.924;28.194;2023-02-13T10:53:42;85104.25;;;21.32;44.76
55486;BME280;49383;-25.924;28.194;2023-02-13T10:58:28;85102.00;;;21.52;43.61
55486;BME280;49383;-25.924;28.194;2023-02-13T11:00:51;85104.04;;;21.44;43.35
55486;BME280;49383;-25.924;28.194;2023-02-13T11:03:18;85107.83;;;21.24;43.03
55486;BME280;49383;-25.924;28.194;2023-02-13T11:05:38;85110.84;;;21.12;43.04
55486;BME280;49383;-25.924;28.194;2023-02-13T11:08:02;85106.56;;;21.21;42.66
55486;BME280;49383;-25.924;28.194;2023-02-13T11:10:27;85101.91;;;21.44;42.56
55486;BME280;49383;-25.924;28.194;2023-02-13T11:12:53;85100.52;;;20.82;43.38
55486;BME280;49383;-25.924;28.194;2023-02-13T11:15:24;85098.54;;;21.24;45.31
55486;BME280;49383;-25.924;28.194;2023-02-13T11:17:42;85094.12;;;20.88;46.86
55486;BME280;49383;-25.924;28.194;2023-02-13T11:22:35;85093.23;;;20.80;50.02
55486;BME280;49383;-25.924;28.194;2023-02-13T11:25:00;85091.52;;;20.69;50.23
55486;BME280;49383;-25.924;28.194;2023-02-13T11:27:27;85091.42;;;20.75;46.66
55486;BME280;49383;-25.924;28.194;2023-02-13T11:29:54;85086.34;;;21.39;44.73
55486;BME280;49383;-25.924;28.194;2023-02-13T11:32:18;85085.60;;;20.70;44.73
55486;BME280;49383;-25.924;28.194;2023-02-13T11:34:38;85078.64;;;21.34;43.83
55486;BME280;49383;-25.924;28.194;2023-02-13T11:39:28;85067.90;;;21.20;43.91
55486;BME280;49383;-25.924;28.194;2023-02-13T11:41:53;85068.39;;;20.97;46.16
55486;BME280;49383;-25.924;28.194;2023-02-13T11:44:22;85068.22;;;20.90;48.59
55486;BME280;49383;-25.924;28.194;2023-02-13T11:46:47;85070.30;;;20.70;50.19
55486;BME280;49383;-25.924;28.194;2023-02-13T11:49:16;85068.33;;;20.59;51.40
55486;BME280;49383;-25.924;28.194;2023-02-13T11:51:39;85065.17;;;20.55;52.37
55486;BME280;49383;-25.924;28.194;2023-02-13T11:53:59;85062.08;;;20.47;52.50
55486;BME280;49383;-25.924;28.194;2023-02-13T11:56:23;85058.14;;;20.10;49.06
55486;BME280;49383;-25.924;28.194;2023-02-13T11:58:59;85057.87;;;20.54;47.64
55486;BME280;49383;-25.924;28.194;2023-02-13T12:01:23;85055.32;;;20.25;50.00
55486;BME280;49383;-25.924;28.194;2023-02-13T12:03:41;85053.82;;;20.14;52.12
55486;BME280;49383;-25.924;28.194;2023-02-13T12:06:10;85050.24;;;20.51;53.37
55486;BME280;49383;-25.924;28.194;2023-02-13T12:08:30;85044.93;;;20.19;54.21
55486;BME280;49383;-25.924;28.194;2023-02-13T12:10:54;85040.18;;;20.12;51.44
55486;BME280;49383;-25.924;28.194;2023-02-13T12:13:23;85034.60;;;20.31;48.16
55486;BME280;49383;-25.924;28.194;2023-02-13T12:15:45;85030.30;;;20.47;49.02
55486;BME280;49383;-25.924;28.194;2023-02-13T12:18:14;85028.71;;;20.60;51.14
55486;BME280;49383;-25.924;28.194;2023-02-13T12:20:47;85026.38;;;20.15;52.97
55486;BME280;49383;-25.924;28.194;2023-02-13T12:23:04;85021.48;;;20.19;53.74
55486;BME280;49383;-25.924;28.194;2023-02-13T12:25:33;85017.02;;;20.10;52.59
55486;BME280;49383;-25.924;28.194;2023-02-13T12:27:57;85014.46;;;20.20;48.76
55486;BME280;49383;-25.924;28.194;2023-02-13T12:30:29;85013.62;;;20.50;48.58
55486;BME280;49383;-25.924;28.194;2023-02-13T12:32:48;85013.04;;;20.17;50.74
55486;BME280;49383;-25.924;28.194;2023-02-13T12:35:23;85013.74;;;20.22;52.33
55486;BME280;49383;-25.924;28.194;2023-02-13T12:37:45;85011.98;;;20.24;52.97
55486;BME280;49383;-25.924;28.194;2023-02-13T12:40:08;85011.79;;;20.41;51.71
55486;BME280;49383;-25.924;28.194;2023-02-13T12:42:29;85008.69;;;20.22;48.34
55486;BME280;49383;-25.924;28.194;2023-02-13T12:44:57;85006.45;;;20.52;49.50